createdAt,value
2023-02-19T00:01:40.299Z,97.15
2023-02-19T00:04:18.791Z,96.40
2023-02-19T00:06:46.684Z,96.64
2023-02-19T00:09:15.297Z,96.18
2023-02-19T00:11:44.056Z,96.34
2023-02-19T00:14:14.371Z,95.87
2023-02-19T00:16:40.822Z,96.16
2023-02-19T00:19:13.210Z,96.37
2023-02-19T00:21:39.623Z,96.47
2023-02-19T00:24:08.050Z,96.77
2023-02-19T00:26:34.956Z,96.00
2023-02-19T00:29:02.038Z,97.07
2023-02-19T00:31:33.024Z,96.39
2023-02-19T00:34:02.713Z,95.90
2023-02-19T00:36:30.670Z,96.21
2023-02-19T00:38:57.333Z,96.03
2023-02-19T00:41:25.022Z,97.05
2023-02-19T00:43:58.332Z,96.59
2023-02-19T00:46:30.211Z,96.89
2023-02-19T00:48:57.814Z,96.50
2023-02-19T00:51:26.904Z,96.57
2023-02-19T00:53:54.048Z,96.11
2023-02-19T00:56:21.223Z,95.42
2023-02-19T00:58:48.107Z,96.16
2023-02-19T01:01:15.263Z,96.20
2023-02-19T01:03:42.063Z,96.94
2023-02-19T01:06:10.187Z,96.83
2023-02-19T01:08:36.806Z,97.20
2023-02-19T01:11:05.423Z,97.27
2023-02-19T01:13:31.982Z,98.11
2023-02-19T01:16:07.267Z,98.04
2023-02-19T01:18:34.926Z,98.00
2023-02-19T01:21:07.111Z,97.95
2023-02-19T01:23:33.799Z,98.41
2023-02-19T01:26:00.176Z,99.59
2023-02-19T01:28:26.645Z,99.84
2023-02-19T01:30:53.089Z,100.00
2023-02-19T01:33:19.477Z,99.14
2023-02-19T01:35:45.875Z,99.10
2023-02-19T01:38:12.360Z,99.88
2023-02-19T01:40:38.719Z,99.54
2023-02-19T01:43:11.604Z,99.72
2023-02-19T01:45:42.602Z,100.00
2023-02-19T01:48:15.818Z,100.00
2023-02-19T01:50:49.100Z,99.52
2023-02-19T01:53:21.600Z,99.18
2023-02-19T01:55:51.752Z,99.72
2023-02-19T01:58:18.602Z,99.04
2023-02-19T02:00:45.006Z,99.97
2023-02-19T02:03:12.300Z,98.62
2023-02-19T02:05:54.759Z,98.88
2023-02-19T02:08:39.849Z,99.50
2023-02-19T02:11:06.296Z,99.09
2023-02-19T02:13:34.762Z,99.06
2023-02-19T02:16:29.789Z,98.82
2023-02-19T02:19:07.614Z,98.25
2023-02-19T02:21:40.243Z,98.92
2023-02-19T02:24:25.067Z,98.78
2023-02-19T02:27:18.251Z,98.32
2023-02-19T02:30:18.568Z,98.90
2023-02-19T02:33:00.361Z,98.67
2023-02-19T02:35:36.328Z,97.94
2023-02-19T02:38:07.733Z,97.36
2023-02-19T02:40:34.969Z,97.24
2023-02-19T02:43:01.547Z,96.70
2023-02-19T02:45:37.837Z,96.30
2023-02-19T02:48:19.097Z,97.19
2023-02-19T02:51:18.845Z,96.67
2023-02-19T02:54:12.153Z,97.05
2023-02-19T02:56:41.206Z,96.03
2023-02-19T02:59:11.189Z,95.55
2023-02-19T03:02:03.515Z,96.02
2023-02-19T03:04:32.999Z,96.83
2023-02-19T03:07:04.421Z,97.23
2023-02-19T03:09:40.550Z,98.13
2023-02-19T03:12:31.539Z,98.72
2023-02-19T03:15:22.277Z,98.34
2023-02-19T03:18:11.479Z,98.95
2023-02-19T03:20:43.830Z,98.70
2023-02-19T03:23:12.898Z,99.85
2023-02-19T03:25:58.489Z,99.86
2023-02-19T03:28:47.267Z,98.71
2023-02-19T03:31:19.382Z,97.43
2023-02-19T03:33:50.243Z,98.09
2023-02-19T03:36:18.819Z,98.25
2023-02-19T03:38:57.128Z,97.42
2023-02-19T03:41:32.516Z,96.34
2023-02-19T03:44:16.595Z,96.48
2023-02-19T03:46:55.038Z,96.15
2023-02-19T03:49:29.372Z,97.22
2023-02-19T03:52:16.613Z,95.84
2023-02-19T03:55:03.225Z,96.04
2023-02-19T03:57:47.545Z,95.73
2023-02-19T04:00:18.107Z,96.47
2023-02-19T04:02:51.223Z,96.93
2023-02-19T04:05:30.613Z,98.00
2023-02-19T04:08:00.480Z,97.89
2023-02-19T04:10:29.243Z,97.54
2023-02-19T04:13:06.421Z,98.66
2023-02-19T04:15:34.359Z,98.32
2023-02-19T04:18:08.460Z,97.90
2023-02-19T04:20:40.298Z,99.60
2023-02-19T04:23:07.459Z,98.31
2023-02-19T04:25:36.195Z,98.20
2023-02-19T04:28:03.316Z,98.58
2023-02-19T04:30:30.138Z,98.79
2023-02-19T04:32:56.548Z,97.30
2023-02-19T04:35:22.927Z,97.25
2023-02-19T04:37:49.309Z,97.43
2023-02-19T04:40:15.688Z,97.27
2023-02-19T04:42:42.043Z,97.64
2023-02-19T04:45:08.701Z,98.20
2023-02-19T04:47:35.124Z,97.88
2023-02-19T04:50:01.603Z,98.36
2023-02-19T04:52:28.036Z,98.24
2023-02-19T04:54:54.453Z,97.51
2023-02-19T04:57:21.225Z,97.80
2023-02-19T04:59:47.604Z,97.71
2023-02-19T05:02:14.086Z,97.52
2023-02-19T05:04:41.092Z,97.28
2023-02-19T05:07:07.496Z,97.35
2023-02-19T05:09:33.913Z,97.86
2023-02-19T05:12:00.365Z,96.22
2023-02-19T05:14:26.764Z,96.15
2023-02-19T05:16:53.172Z,96.29
2023-02-19T05:19:19.543Z,96.61
2023-02-19T05:21:45.959Z,96.84
2023-02-19T05:24:12.336Z,97.08
2023-02-19T05:26:38.707Z,99.09
2023-02-19T05:29:05.415Z,100.00
2023-02-19T05:31:33.765Z,100.00
2023-02-19T05:34:00.350Z,100.00
2023-02-19T05:36:27.144Z,100.00
2023-02-19T05:38:55.246Z,100.00
2023-02-19T05:41:27.161Z,100.00
2023-02-19T05:43:54.071Z,100.00
2023-02-19T05:46:22.987Z,100.00
2023-02-19T05:48:51.263Z,100.00
2023-02-19T05:51:21.282Z,100.00
2023-02-19T05:53:48.901Z,100.00
2023-02-19T05:56:36.590Z,100.00
2023-02-19T05:59:14.306Z,100.00
2023-02-19T06:01:40.759Z,100.00
2023-02-19T06:04:07.340Z,100.00
2023-02-19T06:06:33.815Z,99.95
2023-02-19T06:09:00.291Z,98.90
2023-02-19T06:11:26.760Z,99.36
2023-02-19T06:13:53.268Z,98.57
2023-02-19T06:16:19.807Z,98.71
2023-02-19T06:18:46.265Z,97.73
2023-02-19T06:21:12.903Z,98.06
2023-02-19T06:23:40.105Z,98.52
2023-02-19T06:26:12.445Z,98.24
2023-02-19T06:28:39.930Z,98.91
2023-02-19T06:31:07.249Z,99.69
2023-02-19T06:33:33.877Z,98.73
2023-02-19T06:36:03.303Z,98.47
2023-02-19T06:38:30.899Z,98.11
2023-02-19T06:41:04.394Z,97.49
2023-02-19T06:43:31.548Z,97.23
2023-02-19T06:45:59.877Z,97.15
2023-02-19T06:48:27.890Z,97.36
2023-02-19T06:50:54.398Z,97.07
2023-02-19T06:53:21.263Z,96.04
2023-02-19T06:56:02.595Z,96.16
2023-02-19T06:58:29.785Z,96.59
2023-02-19T07:00:56.304Z,96.08
2023-02-19T07:03:23.121Z,95.08
2023-02-19T07:05:49.838Z,95.20
2023-02-19T07:08:18.838Z,95.08
2023-02-19T07:10:45.727Z,94.86
2023-02-19T07:13:12.329Z,94.28
2023-02-19T07:15:38.818Z,94.73
2023-02-19T07:18:07.475Z,94.48
2023-02-19T07:20:33.896Z,94.39
2023-02-19T07:23:00.368Z,94.42
2023-02-19T07:25:26.843Z,94.00
2023-02-19T07:27:53.325Z,94.54
2023-02-19T07:30:19.924Z,96.48
2023-02-19T07:32:46.344Z,97.75
2023-02-19T07:35:12.810Z,98.51
2023-02-19T07:37:41.301Z,99.34
2023-02-19T07:40:08.013Z,99.79
2023-02-19T07:42:34.363Z,99.57
2023-02-19T07:45:00.820Z,99.59
2023-02-19T07:47:29.597Z,99.00
2023-02-19T07:49:56.092Z,97.75
2023-02-19T07:52:22.689Z,97.57
2023-02-19T07:54:49.131Z,96.96
2023-02-19T07:57:15.603Z,97.14
2023-02-19T07:59:41.984Z,95.85
2023-02-19T08:02:37.931Z,95.97
2023-02-19T08:05:06.327Z,95.26
2023-02-19T08:07:36.604Z,94.85
2023-02-19T08:10:23.135Z,94.58
2023-02-19T08:13:15.382Z,94.58
2023-02-19T08:15:41.751Z,94.19
2023-02-19T08:18:09.463Z,94.44
2023-02-19T08:20:36.238Z,94.41
2023-02-19T08:23:02.666Z,94.31
2023-02-19T08:25:29.643Z,94.04
2023-02-19T08:27:56.280Z,96.58
2023-02-19T08:30:22.745Z,97.25
2023-02-19T08:32:49.422Z,97.95
2023-02-19T08:35:15.983Z,99.00
2023-02-19T08:37:42.331Z,98.41
2023-02-19T08:40:09.210Z,98.64
2023-02-19T08:42:35.602Z,98.27
2023-02-19T08:45:01.944Z,98.29
2023-02-19T08:47:28.302Z,98.90
2023-02-19T08:49:54.685Z,98.02
2023-02-19T08:52:21.072Z,98.00
2023-02-19T08:54:47.430Z,97.25
2023-02-19T08:57:13.942Z,96.62
2023-02-19T08:59:40.311Z,96.54
2023-02-19T09:02:06.747Z,95.99
2023-02-19T09:04:33.376Z,95.43
2023-02-19T09:06:59.907Z,94.71
2023-02-19T09:09:26.310Z,93.13
2023-02-19T09:11:52.714Z,92.83
2023-02-19T09:14:19.068Z,92.11
2023-02-19T09:16:45.489Z,92.63
2023-02-19T09:19:11.880Z,92.54
2023-02-19T09:21:38.222Z,92.50
2023-02-19T09:24:04.827Z,91.77
2023-02-19T09:26:31.169Z,91.22
2023-02-19T09:28:57.644Z,91.82
2023-02-19T09:31:24.048Z,90.98
2023-02-19T09:33:50.531Z,90.86
2023-02-19T09:36:18.595Z,90.23
2023-02-19T09:38:45.505Z,90.67
2023-02-19T09:41:25.792Z,90.18
2023-02-19T09:43:52.243Z,89.38
2023-02-19T09:46:32.255Z,89.24
2023-02-19T09:49:13.705Z,87.38
2023-02-19T09:51:43.818Z,88.22
2023-02-19T09:54:20.334Z,87.63
2023-02-19T09:56:47.464Z,87.75
2023-02-19T09:59:22.244Z,87.21
2023-02-19T10:01:57.473Z,86.87
2023-02-19T10:04:23.940Z,87.36
2023-02-19T10:06:51.539Z,86.21
2023-02-19T10:09:23.873Z,86.32
2023-02-19T10:11:53.563Z,85.15
2023-02-19T10:14:29.084Z,85.01
2023-02-19T10:16:59.290Z,85.30
2023-02-19T10:19:25.699Z,84.85
2023-02-19T10:21:52.335Z,85.79
2023-02-19T10:24:26.821Z,84.83
2023-02-19T10:26:53.442Z,84.31
2023-02-19T10:29:21.764Z,83.39
2023-02-19T10:31:48.521Z,81.66
2023-02-19T10:34:22.197Z,82.32
2023-02-19T10:36:51.005Z,80.92
2023-02-19T10:39:39.390Z,79.77
2023-02-19T10:42:05.905Z,79.31
2023-02-19T10:44:42.658Z,80.15
2023-02-19T10:47:17.258Z,79.52
2023-02-19T10:49:45.912Z,79.06
2023-02-19T10:52:30.413Z,80.31
2023-02-19T10:55:28.150Z,80.63
2023-02-19T10:57:55.557Z,79.86
2023-02-19T11:00:30.446Z,80.98
2023-02-19T11:03:21.131Z,81.25
2023-02-19T11:06:02.356Z,81.79
2023-02-19T11:08:29.930Z,81.70
2023-02-19T11:10:56.472Z,82.02
2023-02-19T11:13:32.727Z,82.66
2023-02-19T11:16:00.104Z,81.78
2023-02-19T11:18:30.641Z,82.52
2023-02-19T11:21:03.658Z,81.53
2023-02-19T11:23:44.935Z,81.97
2023-02-19T11:26:22.852Z,81.47
2023-02-19T11:29:22.401Z,79.58
2023-02-19T11:31:49.113Z,79.59
2023-02-19T11:34:21.124Z,78.37
2023-02-19T11:37:07.677Z,77.11
2023-02-19T11:39:34.583Z,76.12
2023-02-19T11:42:38.377Z,76.26
2023-02-19T11:45:23.005Z,75.93
2023-02-19T11:47:58.515Z,76.26
2023-02-19T11:50:49.873Z,75.52
2023-02-19T11:53:22.394Z,75.32
2023-02-19T11:56:14.205Z,75.30
2023-02-19T11:59:34.270Z,74.46
2023-02-19T12:02:31.266Z,73.63
2023-02-19T12:05:17.108Z,74.12
2023-02-19T12:08:17.232Z,74.67
2023-02-19T12:10:46.642Z,73.84
2023-02-19T12:13:18.962Z,75.46
2023-02-19T12:15:59.257Z,76.09
2023-02-19T12:18:39.506Z,75.91
2023-02-19T12:21:24.410Z,76.05
2023-02-19T12:24:18.821Z,76.37
2023-02-19T12:27:10.659Z,75.58
2023-02-19T12:29:58.615Z,75.58
2023-02-19T12:32:49.402Z,75.29
2023-02-19T12:35:35.589Z,74.57
2023-02-19T12:38:35.166Z,74.72
2023-02-19T12:41:36.021Z,75.14
2023-02-19T12:44:10.475Z,74.42
2023-02-19T12:46:42.134Z,74.05
2023-02-19T12:49:20.463Z,73.98
2023-02-19T12:51:49.964Z,74.27
2023-02-19T12:54:23.580Z,74.29
2023-02-19T12:57:12.767Z,73.87
2023-02-19T12:59:48.867Z,75.03
2023-02-19T13:02:23.944Z,74.83
2023-02-19T13:05:05.774Z,74.55
2023-02-19T13:07:54.371Z,75.66
2023-02-19T13:10:34.883Z,75.72
2023-02-19T13:13:07.700Z,76.38
2023-02-19T13:15:41.734Z,75.36
2023-02-19T13:18:18.692Z,75.19
2023-02-19T13:20:48.726Z,75.73
2023-02-19T13:23:45.230Z,76.12
2023-02-19T13:26:36.540Z,76.33
2023-02-19T13:29:12.222Z,75.47
2023-02-19T13:32:14.032Z,75.71
2023-02-19T13:34:55.658Z,75.38
2023-02-19T13:37:23.816Z,75.22
2023-02-19T13:39:55.316Z,75.26
2023-02-19T13:42:34.883Z,74.59
2023-02-19T13:45:04.063Z,73.79
2023-02-19T13:47:58.498Z,74.29
2023-02-19T13:50:28.352Z,73.38
2023-02-19T13:52:59.532Z,73.85
2023-02-19T13:55:46.068Z,73.44
2023-02-19T13:58:39.722Z,73.13
2023-02-19T14:01:11.381Z,73.19
2023-02-19T14:03:47.613Z,74.55
2023-02-19T14:06:14.827Z,73.76
2023-02-19T14:08:56.144Z,74.18
2023-02-19T14:11:41.563Z,74.10
2023-02-19T14:14:37.008Z,73.92
2023-02-19T14:17:10.430Z,74.65
2023-02-19T14:19:42.966Z,74.90
2023-02-19T14:22:52.838Z,74.44
2023-02-19T14:25:31.660Z,74.43
2023-02-19T14:28:06.934Z,74.76
2023-02-19T14:30:35.348Z,74.42
2023-02-19T14:33:10.687Z,73.67
2023-02-19T14:35:42.602Z,73.85
2023-02-19T14:38:18.152Z,74.81
2023-02-19T14:40:46.689Z,74.23
2023-02-19T14:43:19.983Z,74.14
2023-02-19T14:45:56.930Z,74.67
2023-02-19T14:48:33.436Z,74.04
2023-02-19T14:51:09.710Z,73.90
2023-02-19T14:53:41.836Z,74.62
2023-02-19T14:56:19.856Z,71.92
2023-02-19T14:58:46.251Z,73.88
2023-02-19T15:01:28.468Z,74.17
2023-02-19T15:03:56.526Z,73.22
2023-02-19T15:06:24.351Z,73.95
2023-02-19T15:08:56.927Z,74.56
2023-02-19T15:11:25.967Z,74.71
2023-02-19T15:13:55.905Z,75.36
2023-02-19T15:16:25.788Z,76.81
2023-02-19T15:18:54.930Z,76.72
2023-02-19T15:21:31.188Z,76.97
2023-02-19T15:24:02.518Z,77.70
2023-02-19T15:26:40.608Z,77.18
2023-02-19T15:29:12.038Z,77.89
2023-02-19T15:31:53.157Z,76.81
2023-02-19T15:34:22.160Z,77.35
2023-02-19T15:36:51.538Z,76.74
2023-02-19T15:39:30.063Z,77.77
2023-02-19T15:42:00.276Z,78.69
2023-02-19T15:44:46.947Z,78.83
2023-02-19T15:47:33.188Z,79.33
2023-02-19T15:49:59.578Z,79.62
2023-02-19T15:52:41.098Z,80.97
2023-02-19T15:55:23.803Z,81.53
2023-02-19T15:58:20.351Z,81.66
2023-02-19T16:01:12.264Z,81.96
2023-02-19T16:03:39.417Z,81.74
2023-02-19T16:06:14.992Z,81.65
2023-02-19T16:08:44.418Z,81.65
2023-02-19T16:11:22.686Z,81.36
2023-02-19T16:13:50.723Z,81.26
2023-02-19T16:16:17.248Z,82.07
2023-02-19T16:18:48.686Z,82.97
2023-02-19T16:21:20.086Z,83.21
2023-02-19T16:23:49.688Z,83.11
2023-02-19T16:26:17.107Z,83.75
2023-02-19T16:28:44.021Z,82.87
2023-02-19T16:31:12.759Z,83.26
2023-02-19T16:33:39.390Z,83.96
2023-02-19T16:36:18.063Z,84.01
2023-02-19T16:38:59.480Z,83.69
2023-02-19T16:41:25.955Z,84.92
2023-02-19T16:43:52.359Z,85.66
2023-02-19T16:46:18.856Z,86.10
2023-02-19T16:48:45.908Z,86.58
2023-02-19T16:51:25.490Z,87.55
2023-02-19T16:53:51.889Z,88.66
2023-02-19T16:56:22.737Z,89.02
2023-02-19T16:58:50.230Z,88.99
2023-02-19T17:01:17.182Z,89.44
2023-02-19T17:03:45.026Z,89.37
2023-02-19T17:06:12.190Z,89.33
2023-02-19T17:08:43.484Z,89.08
2023-02-19T17:11:13.595Z,88.37
2023-02-19T17:13:41.166Z,87.83
2023-02-19T17:16:07.651Z,87.21
2023-02-19T17:18:34.108Z,88.17
2023-02-19T17:21:12.298Z,87.70
2023-02-19T17:23:39.105Z,87.96
2023-02-19T17:26:05.540Z,88.26
2023-02-19T17:28:31.995Z,87.56
2023-02-19T17:30:58.402Z,87.75
2023-02-19T17:33:24.746Z,87.59
2023-02-19T17:35:51.190Z,88.49
2023-02-19T17:38:17.585Z,88.26
2023-02-19T17:40:45.199Z,88.04
2023-02-19T17:43:11.563Z,87.65
2023-02-19T17:45:38.686Z,87.20
2023-02-19T17:48:06.576Z,87.77
2023-02-19T17:50:33.038Z,86.67
2023-02-19T17:52:59.446Z,87.39
2023-02-19T17:55:26.271Z,87.66
2023-02-19T17:57:53.393Z,87.81
2023-02-19T18:00:23.536Z,87.51
2023-02-19T18:02:50.250Z,87.63
2023-02-19T18:05:17.452Z,88.12
2023-02-19T18:07:44.926Z,88.76
2023-02-19T18:10:11.547Z,87.60
2023-02-19T18:12:39.348Z,87.58
2023-02-19T18:15:07.484Z,86.39
2023-02-19T18:17:34.635Z,87.20
2023-02-19T18:20:01.160Z,86.86
2023-02-19T18:22:27.522Z,87.12
2023-02-19T18:24:54.495Z,87.78
2023-02-19T18:27:21.840Z,88.88
2023-02-19T18:29:52.076Z,88.31
2023-02-19T18:32:24.005Z,89.05
2023-02-19T18:34:51.928Z,88.55
2023-02-19T18:37:19.454Z,88.84
2023-02-19T18:39:45.998Z,89.71
2023-02-19T18:42:12.943Z,89.51
2023-02-19T18:44:39.367Z,90.36
2023-02-19T18:47:07.264Z,90.47
2023-02-19T18:49:34.570Z,90.77
2023-02-19T18:52:01.364Z,91.34
2023-02-19T18:54:29.053Z,91.36
2023-02-19T18:56:55.674Z,91.01
2023-02-19T18:59:22.862Z,91.76
2023-02-19T19:01:50.085Z,91.91
2023-02-19T19:04:16.665Z,91.69
2023-02-19T19:06:43.241Z,90.58
2023-02-19T19:09:09.931Z,90.24
2023-02-19T19:11:36.583Z,90.23
2023-02-19T19:14:03.079Z,90.10
2023-02-19T19:16:30.123Z,89.85
2023-02-19T19:18:56.823Z,89.35
2023-02-19T19:21:23.352Z,89.70
2023-02-19T19:23:50.091Z,89.29
2023-02-19T19:26:17.364Z,88.25
2023-02-19T19:28:46.559Z,88.36
2023-02-19T19:31:18.270Z,88.65
2023-02-19T19:33:47.012Z,88.73
2023-02-19T19:36:13.983Z,88.38
2023-02-19T19:38:41.221Z,88.64
2023-02-19T19:41:07.624Z,88.50
2023-02-19T19:43:34.238Z,88.94
2023-02-19T19:46:03.536Z,88.89
2023-02-19T19:48:30.175Z,89.70
2023-02-19T19:50:59.125Z,89.61
2023-02-19T19:53:25.872Z,89.43
2023-02-19T19:55:52.466Z,89.67
2023-02-19T19:58:22.675Z,90.46
2023-02-19T20:00:49.047Z,89.45
2023-02-19T20:03:15.385Z,89.35
2023-02-19T20:05:42.007Z,89.81
2023-02-19T20:08:08.359Z,90.17
2023-02-19T20:10:34.706Z,89.25
2023-02-19T20:13:01.729Z,88.93
2023-02-19T20:15:28.272Z,90.66
2023-02-19T20:17:54.650Z,89.90
2023-02-19T20:20:22.614Z,89.67
2023-02-19T20:22:51.719Z,90.33
2023-02-19T20:25:19.546Z,90.46
2023-02-19T20:27:48.290Z,91.13
2023-02-19T20:30:16.093Z,90.50
2023-02-19T20:32:43.036Z,90.35
2023-02-19T20:35:09.610Z,90.86
2023-02-19T20:37:39.693Z,90.94
2023-02-19T20:40:07.595Z,90.05
2023-02-19T20:42:33.984Z,89.45
2023-02-19T20:45:00.438Z,89.23
2023-02-19T20:47:27.944Z,89.52
2023-02-19T20:49:54.375Z,89.11
2023-02-19T20:52:21.751Z,89.25
2023-02-19T20:54:48.168Z,89.65
2023-02-19T20:57:14.588Z,89.84
2023-02-19T20:59:41.083Z,89.42
2023-02-19T21:02:14.137Z,88.65
2023-02-19T21:04:40.677Z,88.99
2023-02-19T21:07:07.092Z,88.79
2023-02-19T21:09:33.626Z,88.93
2023-02-19T21:12:00.036Z,88.32
2023-02-19T21:14:26.705Z,88.28
2023-02-19T21:16:53.673Z,88.49
2023-02-19T21:19:21.584Z,89.08
2023-02-19T21:21:48.120Z,88.38
2023-02-19T21:24:15.408Z,88.28
2023-02-19T21:26:42.791Z,88.23
2023-02-19T21:29:13.889Z,88.11
2023-02-19T21:31:42.880Z,87.29
2023-02-19T21:34:12.159Z,86.86
2023-02-19T21:36:38.640Z,87.46
2023-02-19T21:39:07.029Z,87.17
2023-02-19T21:41:33.428Z,87.21
2023-02-19T21:43:59.855Z,87.47
2023-02-19T21:46:26.757Z,87.76
2023-02-19T21:48:55.341Z,87.83
2023-02-19T21:51:28.966Z,87.58
2023-02-19T21:53:55.379Z,88.54
2023-02-19T21:56:23.335Z,89.00
2023-02-19T21:58:49.812Z,88.98
2023-02-19T22:01:24.452Z,89.03
2023-02-19T22:03:50.968Z,88.35
2023-02-19T22:06:18.242Z,89.84
2023-02-19T22:08:45.368Z,88.91
2023-02-19T22:11:11.857Z,88.99
2023-02-19T22:13:39.507Z,89.81
2023-02-19T22:16:06.682Z,90.27
2023-02-19T22:18:33.445Z,89.81
2023-02-19T22:20:59.867Z,89.53
2023-02-19T22:23:26.378Z,89.44
2023-02-19T22:25:52.770Z,89.66
2023-02-19T22:28:19.178Z,88.56
2023-02-19T22:30:45.593Z,89.24
2023-02-19T22:33:12.051Z,89.47
2023-02-19T22:35:38.451Z,90.79
2023-02-19T22:38:04.882Z,89.78
2023-02-19T22:40:31.364Z,89.22
2023-02-19T22:42:57.697Z,90.06
2023-02-19T22:45:25.503Z,90.14
2023-02-19T22:47:55.327Z,90.44
2023-02-19T22:50:22.536Z,91.21
2023-02-19T22:52:49.881Z,90.57
2023-02-19T22:55:17.394Z,90.35
2023-02-19T22:57:43.774Z,90.72
2023-02-19T23:00:16.116Z,90.48
2023-02-19T23:02:42.487Z,90.79
2023-02-19T23:05:08.846Z,91.33
2023-02-19T23:07:35.238Z,91.98
2023-02-19T23:10:01.642Z,91.66
2023-02-19T23:12:28.097Z,90.72
2023-02-19T23:14:54.544Z,91.12
2023-02-19T23:17:20.980Z,91.75
2023-02-19T23:19:47.676Z,92.36
2023-02-19T23:22:14.300Z,92.33
2023-02-19T23:24:40.762Z,91.87
2023-02-19T23:27:07.359Z,91.76
2023-02-19T23:29:33.755Z,92.00
2023-02-19T23:32:00.325Z,91.19
2023-02-19T23:34:26.844Z,91.25
2023-02-19T23:36:54.248Z,91.08
2023-02-19T23:39:22.061Z,90.83
2023-02-19T23:41:50.736Z,90.08
2023-02-19T23:44:17.734Z,89.70
2023-02-19T23:46:44.873Z,89.81
2023-02-19T23:49:11.809Z,89.60
2023-02-19T23:51:38.284Z,88.84
2023-02-19T23:54:04.932Z,88.77
2023-02-19T23:56:31.883Z,88.72
2023-02-19T23:58:58.575Z,88.55
